createdAt,value
2022-08-25T00:02:17.265Z,25.44
2022-08-25T00:04:44.891Z,25.51
2022-08-25T00:07:21.341Z,25.50
2022-08-25T00:09:48.445Z,25.61
2022-08-25T00:12:15.309Z,25.46
2022-08-25T00:14:43.652Z,25.32
2022-08-25T00:17:10.253Z,25.40
2022-08-25T00:19:38.526Z,25.39
2022-08-25T00:22:09.078Z,25.48
2022-08-25T00:24:36.011Z,25.35
2022-08-25T00:27:03.076Z,25.26
2022-08-25T00:29:31.468Z,25.20
2022-08-25T00:31:58.729Z,25.16
2022-08-25T00:34:29.737Z,25.21
2022-08-25T00:36:56.777Z,25.10
2022-08-25T00:39:24.567Z,25.21
2022-08-25T00:41:53.695Z,25.17
2022-08-25T00:44:20.888Z,25.08
2022-08-25T00:46:53.801Z,25.15
2022-08-25T00:49:26.503Z,25.35
2022-08-25T00:52:02.751Z,25.31
2022-08-25T00:54:34.658Z,25.13
2022-08-25T00:57:03.446Z,25.12
2022-08-25T00:59:30.617Z,25.02
2022-08-25T01:01:59.226Z,25.08
2022-08-25T01:04:26.996Z,25.07
2022-08-25T01:06:54.453Z,25.02
2022-08-25T01:09:21.688Z,24.99
2022-08-25T01:11:49.099Z,24.99
2022-08-25T01:14:18.987Z,24.93
2022-08-25T01:16:46.411Z,24.95
2022-08-25T01:19:17.599Z,24.69
2022-08-25T01:21:50.715Z,24.68
2022-08-25T01:24:26.258Z,24.78
2022-08-25T01:26:53.050Z,24.63
2022-08-25T01:29:22.519Z,24.60
2022-08-25T01:31:51.018Z,24.62
2022-08-25T01:34:20.984Z,24.57
2022-08-25T01:36:47.885Z,24.62
2022-08-25T01:39:14.952Z,24.55
2022-08-25T01:42:00.378Z,24.52
2022-08-25T01:44:27.174Z,24.45
2022-08-25T01:46:54.688Z,24.54
2022-08-25T01:49:22.510Z,24.58
2022-08-25T01:52:12.076Z,24.58
2022-08-25T01:54:40.378Z,24.39
2022-08-25T01:57:07.514Z,24.44
2022-08-25T01:59:34.191Z,24.38
2022-08-25T02:02:01.359Z,24.31
2022-08-25T02:04:32.628Z,24.21
2022-08-25T02:07:04.383Z,24.37
2022-08-25T02:09:31.698Z,24.50
2022-08-25T02:11:59.272Z,24.28
2022-08-25T02:14:26.821Z,24.28
2022-08-25T02:16:54.491Z,24.33
2022-08-25T02:19:23.534Z,24.30
2022-08-25T02:21:51.113Z,24.32
2022-08-25T02:24:18.042Z,24.34
2022-08-25T02:26:44.671Z,24.24
2022-08-25T02:29:11.600Z,24.25
2022-08-25T02:31:39.302Z,24.27
2022-08-25T02:34:06.848Z,24.31
2022-08-25T02:36:33.686Z,24.34
2022-08-25T02:39:00.530Z,24.32
2022-08-25T02:41:31.321Z,24.29
2022-08-25T02:43:59.324Z,24.34
2022-08-25T02:46:26.179Z,24.38
2022-08-25T02:48:53.413Z,24.26
2022-08-25T02:51:26.548Z,24.15
2022-08-25T02:53:53.219Z,24.16
2022-08-25T02:56:20.429Z,24.12
2022-08-25T02:58:47.575Z,24.32
2022-08-25T03:01:15.891Z,24.60
2022-08-25T03:03:44.626Z,24.80
2022-08-25T03:06:14.519Z,24.56
2022-08-25T03:08:42.246Z,24.34
2022-08-25T03:11:09.380Z,24.13
2022-08-25T03:13:36.508Z,24.07
2022-08-25T03:16:11.207Z,24.01
2022-08-25T03:18:40.315Z,23.87
2022-08-25T03:21:07.469Z,23.86
2022-08-25T03:23:34.643Z,23.75
2022-08-25T03:26:20.797Z,23.72
2022-08-25T03:28:47.375Z,23.71
2022-08-25T03:31:14.068Z,23.81
2022-08-25T03:33:40.974Z,23.80
2022-08-25T03:36:08.895Z,23.64
2022-08-25T03:38:38.338Z,23.66
2022-08-25T03:41:17.523Z,23.68
2022-08-25T03:43:44.480Z,23.62
2022-08-25T03:46:26.627Z,23.88
2022-08-25T03:48:53.880Z,23.88
2022-08-25T03:51:28.962Z,23.74
2022-08-25T03:53:56.594Z,23.67
2022-08-25T03:56:23.336Z,23.77
2022-08-25T03:58:51.357Z,23.72
2022-08-25T04:01:18.149Z,23.53
2022-08-25T04:03:45.601Z,23.57
2022-08-25T04:06:12.972Z,24.64
2022-08-25T04:08:39.921Z,24.57
2022-08-25T04:11:11.841Z,24.32
2022-08-25T04:13:38.523Z,23.90
2022-08-25T04:16:12.854Z,23.74
2022-08-25T04:18:40.532Z,23.63
2022-08-25T04:21:11.366Z,23.78
2022-08-25T04:23:40.772Z,23.73
2022-08-25T04:26:12.879Z,23.78
2022-08-25T04:28:40.850Z,23.80
2022-08-25T04:31:12.390Z,23.88
2022-08-25T04:33:39.370Z,23.78
2022-08-25T04:36:11.973Z,23.80
2022-08-25T04:38:40.587Z,23.64
2022-08-25T04:41:09.462Z,23.79
2022-08-25T04:43:37.732Z,23.90
2022-08-25T04:46:13.731Z,23.75
2022-08-25T04:48:51.741Z,23.84
2022-08-25T04:51:23.506Z,23.88
2022-08-25T04:53:50.791Z,24.01
2022-08-25T04:56:20.149Z,24.11
2022-08-25T04:58:47.286Z,24.16
2022-08-25T05:01:20.435Z,24.15
2022-08-25T05:03:49.029Z,24.43
2022-08-25T05:06:16.384Z,24.52
2022-08-25T05:08:45.861Z,24.41
2022-08-25T05:11:15.035Z,24.37
2022-08-25T05:13:42.937Z,24.22
2022-08-25T05:16:11.486Z,24.09
2022-08-25T05:18:39.136Z,24.01
2022-08-25T05:21:18.222Z,24.30
2022-08-25T05:23:46.927Z,24.23
2022-08-25T05:26:21.978Z,24.30
2022-08-25T05:28:50.847Z,24.24
2022-08-25T05:31:20.516Z,24.50
2022-08-25T05:33:47.836Z,24.42
2022-08-25T05:36:15.387Z,24.49
2022-08-25T05:38:42.379Z,24.39
2022-08-25T05:41:12.986Z,24.54
2022-08-25T05:43:41.267Z,24.69
2022-08-25T05:46:08.542Z,24.61
2022-08-25T05:48:36.321Z,24.51
2022-08-25T05:51:06.742Z,24.54
2022-08-25T05:53:34.573Z,24.60
2022-08-25T05:56:01.862Z,24.72
2022-08-25T05:58:30.216Z,24.83
2022-08-25T06:00:58.572Z,24.89
2022-08-25T06:03:25.467Z,24.69
2022-08-25T06:05:52.262Z,24.62
2022-08-25T06:08:19.967Z,24.58
2022-08-25T06:10:52.334Z,24.61
2022-08-25T06:13:19.029Z,24.70
2022-08-25T06:15:58.521Z,24.97
2022-08-25T06:18:25.470Z,24.97
2022-08-25T06:20:52.308Z,25.05
2022-08-25T06:23:21.659Z,25.04
2022-08-25T06:25:53.408Z,24.96
2022-08-25T06:28:20.668Z,25.11
2022-08-25T06:30:48.002Z,25.11
2022-08-25T06:33:15.645Z,25.10
2022-08-25T06:35:43.339Z,25.02
2022-08-25T06:38:11.232Z,24.92
2022-08-25T06:40:38.319Z,25.06
2022-08-25T06:43:08.873Z,25.15
2022-08-25T06:45:35.914Z,25.14
2022-08-25T06:48:02.743Z,25.11
2022-08-25T06:50:29.485Z,25.27
2022-08-25T06:52:56.237Z,25.40
2022-08-25T06:55:23.071Z,25.47
2022-08-25T06:57:54.129Z,25.49
2022-08-25T07:00:22.519Z,25.51
2022-08-25T07:02:58.588Z,25.47
2022-08-25T07:05:33.531Z,25.47
2022-08-25T07:08:01.308Z,25.68
2022-08-25T07:10:28.109Z,25.57
2022-08-25T07:12:58.386Z,25.76
2022-08-25T07:15:25.050Z,25.88
2022-08-25T07:17:51.776Z,25.99
2022-08-25T07:20:19.182Z,26.01
2022-08-25T07:22:46.723Z,26.05
2022-08-25T07:25:13.791Z,26.07
2022-08-25T07:27:42.466Z,26.16
2022-08-25T07:30:11.252Z,26.10
2022-08-25T07:32:41.906Z,26.19
2022-08-25T07:35:15.438Z,26.14
2022-08-25T07:37:49.457Z,26.19
2022-08-25T07:40:25.777Z,26.21
2022-08-25T07:42:55.638Z,26.25
2022-08-25T07:45:30.303Z,26.24
2022-08-25T07:47:59.851Z,26.31
2022-08-25T07:50:28.162Z,26.18
2022-08-25T07:52:56.478Z,26.34
2022-08-25T07:55:26.067Z,26.39
2022-08-25T07:57:57.109Z,26.41
2022-08-25T08:00:27.968Z,26.51
2022-08-25T08:02:55.348Z,26.57
2022-08-25T08:05:23.953Z,26.64
2022-08-25T08:07:51.707Z,26.62
2022-08-25T08:10:53.473Z,26.70
2022-08-25T08:13:07.426Z,26.75
2022-08-25T08:15:35.624Z,26.78
2022-08-25T08:18:04.232Z,26.73
2022-08-25T08:20:42.542Z,26.83
2022-08-25T08:23:10.750Z,26.82
2022-08-25T08:25:37.659Z,26.91
2022-08-25T08:28:04.490Z,27.09
2022-08-25T08:30:36.652Z,27.11
2022-08-25T08:33:09.989Z,27.06
2022-08-25T08:35:38.353Z,27.05
2022-08-25T08:38:13.141Z,27.19
2022-08-25T08:41:14.750Z,27.19
2022-08-25T08:43:43.697Z,27.20
2022-08-25T08:46:11.292Z,27.28
2022-08-25T08:49:07.336Z,27.35
2022-08-25T08:51:45.911Z,27.28
2022-08-25T08:54:20.722Z,27.33
2022-08-25T08:56:55.295Z,27.40
2022-08-25T08:59:30.348Z,27.40
2022-08-25T09:02:03.035Z,27.47
2022-08-25T09:04:44.298Z,27.38
2022-08-25T09:07:17.773Z,27.51
2022-08-25T09:09:47.928Z,27.57
2022-08-25T09:16:03.182Z,27.47
2022-08-25T09:18:55.198Z,27.60
2022-08-25T09:21:34.685Z,27.60
2022-08-25T09:24:15.882Z,27.80
2022-08-25T09:26:55.736Z,27.73
2022-08-25T09:29:26.411Z,27.84
2022-08-25T09:31:58.733Z,27.83
2022-08-25T09:34:32.547Z,27.82
2022-08-25T09:37:00.350Z,27.92
2022-08-25T09:39:27.646Z,28.00
2022-08-25T09:41:59.290Z,27.75
2022-08-25T09:44:44.254Z,28.05
2022-08-25T09:47:20.602Z,28.13
2022-08-25T09:49:49.315Z,28.30
2022-08-25T09:52:28.766Z,28.25
2022-08-25T09:54:57.245Z,28.37
2022-08-25T09:57:32.248Z,28.38
2022-08-25T10:00:22.170Z,28.35
2022-08-25T10:03:06.675Z,28.38
2022-08-25T10:05:41.661Z,28.64
2022-08-25T10:08:24.679Z,28.96
2022-08-25T10:10:57.471Z,28.95
2022-08-25T10:13:39.485Z,28.59
2022-08-25T10:16:24.546Z,28.50
2022-08-25T10:19:30.354Z,28.86
2022-08-25T10:22:12.830Z,29.25
2022-08-25T10:24:44.257Z,29.40
2022-08-25T10:27:29.918Z,29.65
2022-08-25T10:30:27.213Z,29.48
2022-08-25T10:33:27.692Z,29.08
2022-08-25T10:36:11.666Z,28.89
2022-08-25T10:38:43.116Z,29.04
2022-08-25T10:41:33.256Z,29.38
2022-08-25T10:44:45.792Z,30.11
2022-08-25T10:47:48.713Z,30.55
2022-08-25T10:50:45.316Z,30.67
2022-08-25T10:53:22.070Z,30.50
2022-08-25T10:56:07.119Z,30.50
2022-08-25T10:58:56.127Z,30.73
2022-08-25T11:01:48.854Z,30.61
2022-08-25T11:04:42.125Z,30.44
2022-08-25T11:07:35.157Z,30.71
2022-08-25T11:10:11.366Z,30.62
2022-08-25T11:12:53.067Z,30.55
2022-08-25T11:15:26.108Z,30.49
2022-08-25T11:18:02.130Z,30.60
2022-08-25T11:20:36.053Z,30.58
2022-08-25T11:23:14.829Z,30.99
2022-08-25T11:25:45.924Z,30.96
2022-08-25T11:28:34.385Z,30.52
2022-08-25T11:31:07.155Z,30.89
2022-08-25T11:33:34.697Z,31.31
2022-08-25T11:36:06.855Z,31.33
2022-08-25T11:38:51.871Z,31.13
2022-08-25T11:41:55.734Z,30.71
2022-08-25T11:44:53.785Z,30.68
2022-08-25T11:47:44.831Z,31.22
2022-08-25T11:50:53.890Z,31.14
2022-08-25T11:54:06.721Z,31.30
2022-08-25T11:56:40.198Z,31.22
2022-08-25T11:59:08.012Z,30.84
2022-08-25T12:01:40.908Z,30.90
2022-08-25T12:04:14.804Z,30.93
2022-08-25T12:07:07.037Z,31.19
2022-08-25T12:09:55.663Z,30.60
2022-08-25T12:12:38.915Z,30.28
2022-08-25T12:15:27.003Z,30.39
2022-08-25T12:18:13.017Z,30.54
2022-08-25T12:20:56.369Z,30.43
2022-08-25T12:23:45.088Z,31.22
2022-08-25T12:26:17.994Z,31.89
2022-08-25T12:28:50.715Z,32.00
2022-08-25T12:31:23.090Z,31.85
2022-08-25T12:34:00.890Z,31.42
2022-08-25T12:36:33.565Z,31.07
2022-08-25T12:39:24.215Z,31.34
2022-08-25T12:41:58.833Z,31.54
2022-08-25T12:44:42.684Z,32.05
2022-08-25T12:47:19.607Z,32.87
2022-08-25T12:49:50.967Z,32.50
2022-08-25T12:52:21.643Z,31.72
2022-08-25T12:55:06.125Z,31.81
2022-08-25T12:57:57.700Z,31.63
2022-08-25T13:03:09.302Z,32.41
2022-08-25T13:05:58.569Z,32.04
2022-08-25T13:08:46.871Z,31.70
2022-08-25T13:11:22.380Z,31.25
2022-08-25T13:14:04.189Z,30.83
2022-08-25T13:16:31.450Z,30.73
2022-08-25T13:18:59.636Z,30.83
2022-08-25T13:21:44.260Z,30.33
2022-08-25T13:24:27.884Z,30.18
2022-08-25T13:26:57.469Z,30.22
2022-08-25T13:29:27.226Z,30.04
2022-08-25T13:32:09.101Z,30.28
2022-08-25T13:34:39.120Z,30.45
2022-08-25T13:37:30.324Z,30.28
2022-08-25T13:40:17.838Z,29.92
2022-08-25T13:42:54.488Z,29.88
2022-08-25T13:45:31.762Z,30.29
2022-08-25T13:47:59.198Z,29.92
2022-08-25T13:50:26.365Z,29.43
2022-08-25T13:53:08.675Z,29.35
2022-08-25T13:55:53.709Z,29.52
2022-08-25T13:58:44.545Z,29.73
2022-08-25T14:01:49.505Z,29.92
2022-08-25T14:04:27.848Z,29.78
2022-08-25T14:07:33.993Z,29.88
2022-08-25T14:10:06.046Z,29.67
2022-08-25T14:12:46.446Z,29.57
2022-08-25T14:15:29.517Z,29.28
2022-08-25T14:18:01.907Z,28.95
2022-08-25T14:20:31.063Z,28.71
2022-08-25T14:23:01.837Z,28.75
2022-08-25T14:25:30.548Z,28.73
2022-08-25T14:28:06.718Z,28.92
2022-08-25T14:30:36.566Z,29.37
2022-08-25T14:33:04.262Z,29.80
2022-08-25T14:35:31.464Z,29.98
2022-08-25T14:37:59.316Z,29.83
2022-08-25T14:40:28.052Z,29.53
2022-08-25T14:42:57.575Z,29.39
2022-08-25T14:45:24.469Z,29.71
2022-08-25T14:47:51.280Z,30.11
2022-08-25T14:50:20.868Z,30.03
2022-08-25T14:52:48.359Z,29.80
2022-08-25T14:55:31.774Z,29.50
2022-08-25T14:57:59.613Z,29.84
2022-08-25T15:00:26.419Z,30.05
2022-08-25T15:02:55.026Z,30.75
2022-08-25T15:05:26.899Z,30.78
2022-08-25T15:08:13.813Z,30.40
2022-08-25T15:10:40.791Z,29.98
2022-08-25T15:13:07.721Z,29.90
2022-08-25T15:15:39.125Z,29.94
2022-08-25T15:18:19.897Z,29.90
2022-08-25T15:20:47.128Z,29.77
2022-08-25T15:23:18.662Z,29.91
2022-08-25T15:25:52.857Z,30.00
2022-08-25T15:28:21.914Z,30.05
2022-08-25T15:30:49.492Z,30.20
2022-08-25T15:33:16.173Z,29.77
2022-08-25T15:35:43.453Z,29.46
2022-08-25T15:38:12.061Z,29.44
2022-08-25T15:40:39.827Z,29.41
2022-08-25T15:43:07.060Z,29.17
2022-08-25T15:45:36.103Z,29.19
2022-08-25T15:48:06.769Z,29.04
2022-08-25T15:50:36.566Z,29.03
2022-08-25T15:53:03.351Z,29.04
2022-08-25T15:55:30.415Z,29.11
2022-08-25T15:58:00.525Z,29.10
2022-08-25T16:00:27.154Z,29.00
2022-08-25T16:02:58.466Z,28.91
2022-08-25T16:05:26.159Z,29.00
2022-08-25T16:07:53.725Z,29.08
2022-08-25T16:10:21.119Z,29.28
2022-08-25T16:12:48.664Z,29.84
2022-08-25T16:15:16.132Z,29.86
2022-08-25T16:17:45.934Z,29.61
2022-08-25T16:20:17.230Z,29.35
2022-08-25T16:22:45.028Z,29.38
2022-08-25T16:25:11.736Z,29.37
2022-08-25T16:27:39.223Z,29.20
2022-08-25T16:30:14.945Z,29.01
2022-08-25T16:32:44.143Z,28.89
2022-08-25T16:35:11.356Z,28.81
2022-08-25T16:37:38.110Z,28.61
2022-08-25T16:40:06.156Z,28.49
2022-08-25T16:42:33.482Z,28.50
2022-08-25T16:45:00.644Z,28.54
2022-08-25T16:47:27.241Z,28.64
2022-08-25T16:49:54.049Z,28.59
2022-08-25T16:52:44.428Z,28.62
2022-08-25T16:55:16.308Z,28.68
2022-08-25T16:57:47.514Z,28.62
2022-08-25T17:03:04.941Z,28.49
2022-08-25T17:05:33.657Z,28.44
2022-08-25T17:08:19.706Z,28.37
2022-08-25T17:10:47.066Z,28.48
2022-08-25T17:13:14.468Z,28.50
2022-08-25T17:15:47.144Z,28.57
2022-08-25T17:18:14.098Z,28.49
2022-08-25T17:20:45.259Z,28.45
2022-08-25T17:23:13.226Z,28.50
2022-08-25T17:25:43.219Z,28.43
2022-08-25T17:28:12.037Z,28.42
2022-08-25T17:30:39.603Z,28.42
2022-08-25T17:33:06.771Z,28.38
2022-08-25T17:35:40.134Z,28.39
2022-08-25T17:38:07.564Z,28.42
2022-08-25T17:40:35.932Z,28.33
2022-08-25T17:43:02.703Z,28.36
2022-08-25T17:45:29.649Z,28.36
2022-08-25T17:47:57.820Z,28.33
2022-08-25T17:50:25.183Z,28.38
2022-08-25T17:52:52.499Z,28.42
2022-08-25T17:55:24.154Z,28.37
2022-08-25T17:57:51.494Z,28.28
2022-08-25T18:00:20.052Z,28.23
2022-08-25T18:02:48.097Z,28.23
2022-08-25T18:05:15.757Z,28.25
2022-08-25T18:07:42.576Z,28.38
2022-08-25T18:10:11.439Z,28.26
2022-08-25T18:12:38.855Z,28.39
2022-08-25T18:15:06.904Z,28.31
2022-08-25T18:17:35.846Z,28.41
2022-08-25T18:20:06.213Z,28.50
2022-08-25T18:22:33.931Z,28.57
2022-08-25T18:25:06.818Z,28.63
2022-08-25T18:27:34.247Z,28.70
2022-08-25T18:30:01.565Z,28.71
2022-08-25T18:32:29.349Z,28.66
2022-08-25T18:34:56.923Z,28.62
2022-08-25T18:37:42.873Z,28.68
2022-08-25T18:40:22.883Z,28.55
2022-08-25T18:42:58.669Z,28.57
2022-08-25T18:45:42.258Z,28.43
2022-08-25T18:48:09.623Z,28.52
2022-08-25T18:50:40.434Z,28.62
2022-08-25T18:53:08.603Z,28.68
2022-08-25T18:55:35.984Z,28.80
2022-08-25T18:58:04.281Z,28.84
2022-08-25T19:00:32.415Z,28.93
2022-08-25T19:03:00.728Z,29.05
2022-08-25T19:05:33.271Z,29.01
2022-08-25T19:08:02.957Z,28.94
2022-08-25T19:10:30.911Z,28.94
2022-08-25T19:12:58.474Z,28.74
2022-08-25T19:15:35.232Z,28.47
2022-08-25T19:18:02.190Z,28.42
2022-08-25T19:20:31.638Z,28.42
2022-08-25T19:22:58.584Z,28.66
2022-08-25T19:25:25.765Z,28.51
2022-08-25T19:28:00.993Z,28.45
2022-08-25T19:30:30.405Z,28.48
2022-08-25T19:32:57.894Z,28.42
2022-08-25T19:35:31.827Z,28.37
2022-08-25T19:38:01.000Z,28.43
2022-08-25T19:40:30.090Z,28.40
2022-08-25T19:42:58.010Z,28.38
2022-08-25T19:45:25.562Z,28.46
2022-08-25T19:47:52.359Z,28.52
2022-08-25T19:50:20.801Z,28.43
2022-08-25T19:52:48.270Z,28.51
2022-08-25T19:55:17.423Z,28.52
2022-08-25T19:57:44.382Z,28.30
2022-08-25T20:00:21.429Z,28.33
2022-08-25T20:02:48.955Z,28.33
2022-08-25T20:05:23.532Z,28.48
2022-08-25T20:07:52.425Z,28.45
2022-08-25T20:10:20.393Z,28.40
2022-08-25T20:12:48.043Z,28.46
2022-08-25T20:15:16.626Z,28.51
2022-08-25T20:17:45.068Z,28.49
2022-08-25T20:20:16.548Z,28.55
2022-08-25T20:22:43.499Z,28.48
2022-08-25T20:25:19.383Z,28.56
2022-08-25T20:27:56.197Z,28.53
2022-08-25T20:30:29.646Z,28.57
2022-08-25T20:32:57.725Z,28.50
2022-08-25T20:35:26.970Z,28.49
2022-08-25T20:37:54.742Z,28.52
2022-08-25T20:40:25.440Z,28.43
2022-08-25T20:42:53.070Z,28.29
2022-08-25T20:45:24.521Z,28.25
2022-08-25T20:47:51.418Z,28.18
2022-08-25T20:50:18.809Z,28.23
2022-08-25T20:52:45.635Z,28.27
2022-08-25T20:55:23.337Z,28.21
2022-08-25T20:57:51.386Z,28.19
2022-08-25T21:00:19.528Z,28.26
2022-08-25T21:02:50.961Z,27.98
2022-08-25T21:05:19.656Z,28.04
2022-08-25T21:07:47.419Z,28.00
2022-08-25T21:10:17.288Z,27.92
2022-08-25T21:12:46.060Z,27.90
2022-08-25T21:15:18.005Z,27.74
2022-08-25T21:17:52.630Z,27.69
2022-08-25T21:20:23.813Z,27.68
2022-08-25T21:22:51.530Z,27.82
2022-08-25T21:25:20.567Z,27.77
2022-08-25T21:27:47.982Z,27.68
2022-08-25T21:30:17.006Z,27.58
2022-08-25T21:32:52.724Z,27.52
2022-08-25T21:35:20.473Z,27.61
2022-08-25T21:37:53.062Z,27.68
2022-08-25T21:40:23.101Z,27.61
2022-08-25T21:42:50.792Z,27.63
2022-08-25T21:45:20.957Z,27.62
2022-08-25T21:47:48.496Z,27.66
2022-08-25T21:50:15.325Z,27.88
2022-08-25T21:52:42.411Z,27.63
2022-08-25T21:55:15.885Z,27.73
2022-08-25T21:57:43.230Z,27.73
2022-08-25T22:00:13.452Z,27.48
2022-08-25T22:02:40.173Z,27.29
2022-08-25T22:05:10.798Z,27.13
2022-08-25T22:07:40.399Z,27.23
2022-08-25T22:10:16.453Z,27.16
2022-08-25T22:12:58.536Z,27.05
2022-08-25T22:15:28.672Z,27.09
2022-08-25T22:17:55.303Z,27.18
2022-08-25T22:20:25.266Z,27.14
2022-08-25T22:22:52.261Z,27.00
2022-08-25T22:25:19.056Z,26.93
2022-08-25T22:27:47.525Z,26.95
2022-08-25T22:30:29.598Z,26.84
2022-08-25T22:33:00.159Z,26.88
2022-08-25T22:35:27.781Z,26.90
2022-08-25T22:37:54.558Z,26.69
2022-08-25T22:40:21.247Z,26.69
2022-08-25T22:42:48.376Z,26.82
2022-08-25T22:45:15.154Z,26.76
2022-08-25T22:47:42.867Z,26.87
2022-08-25T22:50:10.075Z,27.01
2022-08-25T22:52:38.157Z,26.94
2022-08-25T22:55:11.266Z,26.86
2022-08-25T22:57:39.101Z,26.83
2022-08-25T23:00:09.484Z,26.87
2022-08-25T23:02:36.674Z,26.87
2022-08-25T23:05:04.178Z,26.94
2022-08-25T23:07:36.900Z,27.05
2022-08-25T23:10:07.959Z,27.01
2022-08-25T23:12:35.154Z,26.90
2022-08-25T23:15:01.993Z,26.83
2022-08-25T23:17:29.728Z,26.83
2022-08-25T23:19:56.577Z,26.69
2022-08-25T23:22:23.293Z,26.61
2022-08-25T23:24:53.485Z,26.72
2022-08-25T23:27:21.604Z,26.79
2022-08-25T23:29:49.802Z,26.86
2022-08-25T23:32:18.467Z,26.81
2022-08-25T23:34:46.991Z,26.88
2022-08-25T23:37:15.198Z,26.82
2022-08-25T23:39:45.508Z,26.71
2022-08-25T23:42:12.288Z,26.76
2022-08-25T23:44:40.925Z,26.76
2022-08-25T23:47:07.929Z,26.81
2022-08-25T23:49:39.343Z,26.84
2022-08-25T23:52:06.121Z,26.87
2022-08-25T23:54:32.924Z,26.82
2022-08-25T23:57:00.308Z,26.83
2022-08-25T23:59:28.527Z,26.81
